sensor_id;sensor_type;location;lat;lon;timestamp;P1;durP1;ratioP1;P2;durP2;ratioP2
23768;SDS011;12064;50.890;5.424;2023-04-24T00:02:29;1.50;;;1.00;;
23768;SDS011;12064;50.890;5.424;2023-04-24T00:11:21;1.00;;;0.90;;
23768;SDS011;12064;50.890;5.424;2023-04-24T00:20:12;1.35;;;1.00;;
23768;SDS011;12064;50.890;5.424;2023-04-24T00:29:04;2.05;;;0.98;;
23768;SDS011;12064;50.890;5.424;2023-04-24T00:37:55;1.10;;;1.00;;
23768;SDS011;12064;50.890;5.424;2023-04-24T00:46:46;1.83;;;1.00;;
23768;SDS011;12064;50.890;5.424;2023-04-24T00:55:41;1.60;;;1.00;;
23768;SDS011;12064;50.890;5.424;2023-04-24T01:04:32;1.85;;;0.88;;
23768;SDS011;12064;50.890;5.424;2023-04-24T01:13:23;1.30;;;1.08;;
23768;SDS011;12064;50.890;5.424;2023-04-24T01:22:14;1.08;;;1.00;;
23768;SDS011;12064;50.890;5.424;2023-04-24T01:31:06;1.73;;;0.88;;
23768;SDS011;12064;50.890;5.424;2023-04-24T01:39:57;1.25;;;1.02;;
23768;SDS011;12064;50.890;5.424;2023-04-24T01:48:47;1.50;;;1.00;;
23768;SDS011;12064;50.890;5.424;2023-04-24T01:57:38;1.10;;;1.00;;
23768;SDS011;12064;50.890;5.424;2023-04-24T02:06:31;1.10;;;1.10;;
23768;SDS011;12064;50.890;5.424;2023-04-24T02:15:22;1.08;;;1.08;;
23768;SDS011;12064;50.890;5.424;2023-04-24T02:24:13;1.17;;;0.98;;
23768;SDS011;12064;50.890;5.424;2023-04-24T02:33:03;1.20;;;1.10;;
23768;SDS011;12064;50.890;5.424;2023-04-24T02:41:54;2.65;;;1.30;;
23768;SDS011;12064;50.890;5.424;2023-04-24T02:50:45;1.10;;;1.00;;
23768;SDS011;12064;50.890;5.424;2023-04-24T02:59:35;2.27;;;1.10;;
23768;SDS011;12064;50.890;5.424;2023-04-24T03:08:26;1.58;;;1.00;;
23768;SDS011;12064;50.890;5.424;2023-04-24T03:17:17;2.15;;;1.20;;
23768;SDS011;12064;50.890;5.424;2023-04-24T03:26:07;0.80;;;0.80;;
23768;SDS011;12064;50.890;5.424;2023-04-24T03:34:58;2.95;;;1.05;;
23768;SDS011;12064;50.890;5.424;2023-04-24T03:43:49;1.63;;;0.90;;
23768;SDS011;12064;50.890;5.424;2023-04-24T03:52:40;1.33;;;1.13;;
23768;SDS011;12064;50.890;5.424;2023-04-24T04:01:30;1.10;;;0.97;;
23768;SDS011;12064;50.890;5.424;2023-04-24T04:10:21;1.00;;;0.90;;
23768;SDS011;12064;50.890;5.424;2023-04-24T04:19:11;1.52;;;1.20;;
23768;SDS011;12064;50.890;5.424;2023-04-24T04:28:02;2.07;;;1.00;;
23768;SDS011;12064;50.890;5.424;2023-04-24T04:36:53;2.38;;;1.10;;
23768;SDS011;12064;50.890;5.424;2023-04-24T04:45:43;2.20;;;1.10;;
23768;SDS011;12064;50.890;5.424;2023-04-24T04:54:35;1.55;;;1.00;;
23768;SDS011;12064;50.890;5.424;2023-04-24T05:03:25;1.00;;;0.90;;
23768;SDS011;12064;50.890;5.424;2023-04-24T05:12:16;1.07;;;0.97;;
23768;SDS011;12064;50.890;5.424;2023-04-24T05:21:06;1.92;;;1.30;;
23768;SDS011;12064;50.890;5.424;2023-04-24T05:29:57;1.63;;;1.20;;
23768;SDS011;12064;50.890;5.424;2023-04-24T05:38:48;1.27;;;1.00;;
23768;SDS011;12064;50.890;5.424;2023-04-24T05:47:38;1.20;;;1.10;;
23768;SDS011;12064;50.890;5.424;2023-04-24T05:56:29;2.47;;;1.20;;
23768;SDS011;12064;50.890;5.424;2023-04-24T06:05:20;1.50;;;1.15;;
23768;SDS011;12064;50.890;5.424;2023-04-24T06:14:11;1.08;;;1.00;;
23768;SDS011;12064;50.890;5.424;2023-04-24T06:23:02;1.40;;;1.30;;
23768;SDS011;12064;50.890;5.424;2023-04-24T06:31:52;1.40;;;1.10;;
23768;SDS011;12064;50.890;5.424;2023-04-24T06:40:43;1.70;;;1.30;;
23768;SDS011;12064;50.890;5.424;2023-04-24T06:49:37;1.58;;;1.42;;
23768;SDS011;12064;50.890;5.424;2023-04-24T06:58:27;1.75;;;1.50;;
23768;SDS011;12064;50.890;5.424;2023-04-24T07:07:20;1.83;;;1.60;;
23768;SDS011;12064;50.890;5.424;2023-04-24T07:16:11;3.60;;;1.85;;
23768;SDS011;12064;50.890;5.424;2023-04-24T07:25:02;2.10;;;1.90;;
23768;SDS011;12064;50.890;5.424;2023-04-24T07:33:53;2.58;;;2.00;;
23768;SDS011;12064;50.890;5.424;2023-04-24T07:42:45;3.10;;;1.97;;
23768;SDS011;12064;50.890;5.424;2023-04-24T07:51:38;2.58;;;2.28;;
23768;SDS011;12064;50.890;5.424;2023-04-24T08:00:29;2.85;;;2.30;;
23768;SDS011;12064;50.890;5.424;2023-04-24T08:09:20;4.28;;;2.35;;
23768;SDS011;12064;50.890;5.424;2023-04-24T08:18:10;2.60;;;2.40;;
23768;SDS011;12064;50.890;5.424;2023-04-24T08:27:02;2.55;;;2.22;;
23768;SDS011;12064;50.890;5.424;2023-04-24T08:35:54;2.93;;;2.50;;
23768;SDS011;12064;50.890;5.424;2023-04-24T08:44:44;10.48;;;5.07;;
23768;SDS011;12064;50.890;5.424;2023-04-24T08:53:35;5.55;;;3.13;;
23768;SDS011;12064;50.890;5.424;2023-04-24T09:02:26;4.25;;;2.80;;
23768;SDS011;12064;50.890;5.424;2023-04-24T09:11:17;4.75;;;2.63;;
23768;SDS011;12064;50.890;5.424;2023-04-24T09:20:08;3.47;;;2.30;;
23768;SDS011;12064;50.890;5.424;2023-04-24T09:28:59;4.32;;;2.42;;
23768;SDS011;12064;50.890;5.424;2023-04-24T09:37:50;3.22;;;2.65;;
23768;SDS011;12064;50.890;5.424;2023-04-24T09:46:42;4.32;;;2.60;;
23768;SDS011;12064;50.890;5.424;2023-04-24T09:55:42;4.00;;;2.87;;
23768;SDS011;12064;50.890;5.424;2023-04-24T10:04:36;4.32;;;2.60;;
23768;SDS011;12064;50.890;5.424;2023-04-24T10:13:26;5.05;;;2.80;;
23768;SDS011;12064;50.890;5.424;2023-04-24T10:22:20;5.18;;;2.90;;
23768;SDS011;12064;50.890;5.424;2023-04-24T10:31:14;5.85;;;3.10;;
23768;SDS011;12064;50.890;5.424;2023-04-24T10:40:05;4.30;;;2.20;;
23768;SDS011;12064;50.890;5.424;2023-04-24T10:48:58;4.00;;;2.65;;
23768;SDS011;12064;50.890;5.424;2023-04-24T10:58:04;5.10;;;2.85;;
23768;SDS011;12064;50.890;5.424;2023-04-24T11:06:55;5.30;;;2.50;;
23768;SDS011;12064;50.890;5.424;2023-04-24T11:15:46;3.13;;;2.53;;
23768;SDS011;12064;50.890;5.424;2023-04-24T11:25:10;3.92;;;2.63;;
23768;SDS011;12064;50.890;5.424;2023-04-24T11:34:06;4.00;;;2.80;;
23768;SDS011;12064;50.890;5.424;2023-04-24T11:43:06;2.97;;;2.50;;
23768;SDS011;12064;50.890;5.424;2023-04-24T11:52:01;2.97;;;2.20;;
23768;SDS011;12064;50.890;5.424;2023-04-24T12:00:56;4.13;;;2.50;;
23768;SDS011;12064;50.890;5.424;2023-04-24T12:09:49;2.72;;;2.20;;
23768;SDS011;12064;50.890;5.424;2023-04-24T12:18:45;3.77;;;2.37;;
23768;SDS011;12064;50.890;5.424;2023-04-24T12:27:39;4.22;;;2.30;;
23768;SDS011;12064;50.890;5.424;2023-04-24T12:36:30;3.13;;;2.22;;
23768;SDS011;12064;50.890;5.424;2023-04-24T12:45:21;3.38;;;2.38;;
23768;SDS011;12064;50.890;5.424;2023-04-24T12:54:13;3.03;;;2.05;;
23768;SDS011;12064;50.890;5.424;2023-04-24T13:03:04;2.50;;;2.13;;
23768;SDS011;12064;50.890;5.424;2023-04-24T13:11:55;2.67;;;2.25;;
23768;SDS011;12064;50.890;5.424;2023-04-24T13:20:46;2.97;;;2.10;;
23768;SDS011;12064;50.890;5.424;2023-04-24T13:29:37;2.50;;;2.20;;
23768;SDS011;12064;50.890;5.424;2023-04-24T13:38:28;2.40;;;2.03;;
23768;SDS011;12064;50.890;5.424;2023-04-24T13:47:18;3.05;;;2.40;;
23768;SDS011;12064;50.890;5.424;2023-04-24T13:56:09;2.67;;;2.10;;
23768;SDS011;12064;50.890;5.424;2023-04-24T14:05:00;2.67;;;2.10;;
23768;SDS011;12064;50.890;5.424;2023-04-24T14:13:50;2.90;;;1.85;;
23768;SDS011;12064;50.890;5.424;2023-04-24T14:22:41;2.17;;;1.98;;
23768;SDS011;12064;50.890;5.424;2023-04-24T14:31:32;2.50;;;1.98;;
23768;SDS011;12064;50.890;5.424;2023-04-24T14:40:22;2.00;;;1.77;;
23768;SDS011;12064;50.890;5.424;2023-04-24T14:49:13;2.15;;;1.90;;
23768;SDS011;12064;50.890;5.424;2023-04-24T14:58:04;1.67;;;1.58;;
23768;SDS011;12064;50.890;5.424;2023-04-24T15:06:55;2.35;;;1.67;;
23768;SDS011;12064;50.890;5.424;2023-04-24T15:15:46;2.15;;;1.75;;
23768;SDS011;12064;50.890;5.424;2023-04-24T15:24:37;1.70;;;1.60;;
23768;SDS011;12064;50.890;5.424;2023-04-24T15:33:28;2.90;;;1.95;;
23768;SDS011;12064;50.890;5.424;2023-04-24T15:42:18;2.70;;;1.90;;
23768;SDS011;12064;50.890;5.424;2023-04-24T15:51:09;1.90;;;1.70;;
23768;SDS011;12064;50.890;5.424;2023-04-24T16:00:00;2.33;;;2.00;;
23768;SDS011;12064;50.890;5.424;2023-04-24T16:08:51;1.90;;;1.80;;
23768;SDS011;12064;50.890;5.424;2023-04-24T16:17:42;1.80;;;1.70;;
23768;SDS011;12064;50.890;5.424;2023-04-24T16:26:33;2.03;;;1.83;;
23768;SDS011;12064;50.890;5.424;2023-04-24T16:35:23;1.70;;;1.60;;
23768;SDS011;12064;50.890;5.424;2023-04-24T16:44:14;1.85;;;1.60;;
23768;SDS011;12064;50.890;5.424;2023-04-24T16:53:05;2.00;;;1.80;;
23768;SDS011;12064;50.890;5.424;2023-04-24T17:01:56;1.70;;;1.60;;
23768;SDS011;12064;50.890;5.424;2023-04-24T17:10:46;2.08;;;1.88;;
23768;SDS011;12064;50.890;5.424;2023-04-24T17:19:37;2.00;;;1.80;;
23768;SDS011;12064;50.890;5.424;2023-04-24T17:28:28;1.73;;;1.63;;
23768;SDS011;12064;50.890;5.424;2023-04-24T17:37:20;1.77;;;1.67;;
23768;SDS011;12064;50.890;5.424;2023-04-24T17:46:12;1.80;;;1.70;;
23768;SDS011;12064;50.890;5.424;2023-04-24T17:55:03;2.60;;;1.80;;
23768;SDS011;12064;50.890;5.424;2023-04-24T18:03:54;1.95;;;1.85;;
23768;SDS011;12064;50.890;5.424;2023-04-24T18:12:45;2.13;;;1.65;;
23768;SDS011;12064;50.890;5.424;2023-04-24T18:21:36;1.73;;;1.63;;
23768;SDS011;12064;50.890;5.424;2023-04-24T18:30:27;2.13;;;1.70;;
23768;SDS011;12064;50.890;5.424;2023-04-24T18:39:20;1.60;;;1.50;;
23768;SDS011;12064;50.890;5.424;2023-04-24T18:48:10;1.75;;;1.65;;
23768;SDS011;12064;50.890;5.424;2023-04-24T18:57:01;1.63;;;1.52;;
23768;SDS011;12064;50.890;5.424;2023-04-24T19:05:52;1.60;;;1.50;;
23768;SDS011;12064;50.890;5.424;2023-04-24T19:14:42;1.67;;;1.57;;
23768;SDS011;12064;50.890;5.424;2023-04-24T19:23:34;1.92;;;1.58;;
23768;SDS011;12064;50.890;5.424;2023-04-24T19:32:25;1.60;;;1.50;;
23768;SDS011;12064;50.890;5.424;2023-04-24T19:41:16;1.60;;;1.50;;
23768;SDS011;12064;50.890;5.424;2023-04-24T19:50:07;1.70;;;1.60;;
23768;SDS011;12064;50.890;5.424;2023-04-24T19:58:58;1.75;;;1.50;;
23768;SDS011;12064;50.890;5.424;2023-04-24T20:07:50;1.83;;;1.55;;
23768;SDS011;12064;50.890;5.424;2023-04-24T20:16:40;2.03;;;1.67;;
23768;SDS011;12064;50.890;5.424;2023-04-24T20:25:31;1.80;;;1.70;;
23768;SDS011;12064;50.890;5.424;2023-04-24T20:34:22;1.52;;;1.40;;
23768;SDS011;12064;50.890;5.424;2023-04-24T20:43:13;2.13;;;1.67;;
23768;SDS011;12064;50.890;5.424;2023-04-24T20:52:07;2.38;;;1.70;;
23768;SDS011;12064;50.890;5.424;2023-04-24T21:00:57;1.40;;;1.30;;
23768;SDS011;12064;50.890;5.424;2023-04-24T21:09:49;2.17;;;1.70;;
23768;SDS011;12064;50.890;5.424;2023-04-24T21:18:40;2.42;;;1.50;;
23768;SDS011;12064;50.890;5.424;2023-04-24T21:27:30;1.75;;;1.40;;
23768;SDS011;12064;50.890;5.424;2023-04-24T21:36:21;2.70;;;1.75;;
23768;SDS011;12064;50.890;5.424;2023-04-24T21:45:12;1.52;;;1.33;;
23768;SDS011;12064;50.890;5.424;2023-04-24T21:54:02;1.70;;;1.60;;
23768;SDS011;12064;50.890;5.424;2023-04-24T22:02:53;2.70;;;1.63;;
23768;SDS011;12064;50.890;5.424;2023-04-24T22:11:44;2.35;;;1.45;;
23768;SDS011;12064;50.890;5.424;2023-04-24T22:20:35;1.60;;;1.40;;
23768;SDS011;12064;50.890;5.424;2023-04-24T22:29:26;3.65;;;1.48;;
23768;SDS011;12064;50.890;5.424;2023-04-24T22:38:17;2.13;;;1.60;;
23768;SDS011;12064;50.890;5.424;2023-04-24T22:47:07;3.10;;;1.80;;
23768;SDS011;12064;50.890;5.424;2023-04-24T22:55:58;2.50;;;1.70;;
23768;SDS011;12064;50.890;5.424;2023-04-24T23:04:49;1.98;;;1.63;;
23768;SDS011;12064;50.890;5.424;2023-04-24T23:13:40;2.00;;;1.70;;
23768;SDS011;12064;50.890;5.424;2023-04-24T23:22:31;1.80;;;1.70;;
23768;SDS011;12064;50.890;5.424;2023-04-24T23:31:22;2.38;;;1.70;;
23768;SDS011;12064;50.890;5.424;2023-04-24T23:40:13;1.55;;;1.45;;
23768;SDS011;12064;50.890;5.424;2023-04-24T23:49:04;2.40;;;1.60;;
23768;SDS011;12064;50.890;5.424;2023-04-24T23:57:55;1.92;;;1.73;;
